sensor_id;sensor_type;location;lat;lon;timestamp;P1;durP1;ratioP1;P2;durP2;ratioP2
64873;SDS011;51367;45.204;38.576;2022-12-29T00:00:52;3.25;;;2.38;;
64873;SDS011;51367;45.204;38.576;2022-12-29T00:03:18;10.02;;;2.58;;
64873;SDS011;51367;45.204;38.576;2022-12-29T00:05:44;3.65;;;2.90;;
64873;SDS011;51367;45.204;38.576;2022-12-29T00:08:09;2.22;;;1.88;;
64873;SDS011;51367;45.204;38.576;2022-12-29T00:10:35;4.00;;;2.10;;
64873;SDS011;51367;45.204;38.576;2022-12-29T00:13:01;7.70;;;3.05;;
64873;SDS011;51367;45.204;38.576;2022-12-29T00:15:45;7.00;;;2.45;;
64873;SDS011;51367;45.204;38.576;2022-12-29T00:18:11;1.55;;;1.27;;
64873;SDS011;51367;45.204;38.576;2022-12-29T00:20:37;1.92;;;1.83;;
64873;SDS011;51367;45.204;38.576;2022-12-29T00:23:21;5.22;;;1.88;;
64873;SDS011;51367;45.204;38.576;2022-12-29T00:26:11;9.18;;;2.13;;
64873;SDS011;51367;45.204;38.576;2022-12-29T00:28:58;6.97;;;1.85;;
64873;SDS011;51367;45.204;38.576;2022-12-29T00:31:42;3.40;;;3.10;;
64873;SDS011;51367;45.204;38.576;2022-12-29T00:34:27;1.00;;;1.00;;
64873;SDS011;51367;45.204;38.576;2022-12-29T00:37:11;1.88;;;1.75;;
64873;SDS011;51367;45.204;38.576;2022-12-29T00:39:37;2.08;;;1.35;;
64873;SDS011;51367;45.204;38.576;2022-12-29T00:42:21;8.00;;;1.67;;
64873;SDS011;51367;45.204;38.576;2022-12-29T00:45:05;1.98;;;1.85;;
64873;SDS011;51367;45.204;38.576;2022-12-29T00:47:31;1.77;;;1.67;;
64873;SDS011;51367;45.204;38.576;2022-12-29T00:49:57;4.93;;;2.45;;
64873;SDS011;51367;45.204;38.576;2022-12-29T00:52:23;6.05;;;2.78;;
64873;SDS011;51367;45.204;38.576;2022-12-29T00:54:49;1.38;;;1.27;;
64873;SDS011;51367;45.204;38.576;2022-12-29T00:57:15;2.05;;;1.95;;
64873;SDS011;51367;45.204;38.576;2022-12-29T00:59:41;2.15;;;2.03;;
64873;SDS011;51367;45.204;38.576;2022-12-29T01:02:08;4.40;;;3.22;;
64873;SDS011;51367;45.204;38.576;2022-12-29T01:04:35;3.22;;;2.53;;
64873;SDS011;51367;45.204;38.576;2022-12-29T01:07:01;2.47;;;2.28;;
64873;SDS011;51367;45.204;38.576;2022-12-29T01:09:27;1.45;;;1.35;;
64873;SDS011;51367;45.204;38.576;2022-12-29T01:12:11;2.17;;;2.03;;
64873;SDS011;51367;45.204;38.576;2022-12-29T01:14:38;2.55;;;2.15;;
64873;SDS011;51367;45.204;38.576;2022-12-29T01:17:04;2.25;;;2.15;;
64873;SDS011;51367;45.204;38.576;2022-12-29T01:19:31;2.75;;;1.67;;
64873;SDS011;51367;45.204;38.576;2022-12-29T01:21:57;1.98;;;1.55;;
64873;SDS011;51367;45.204;38.576;2022-12-29T01:24:23;4.40;;;1.70;;
64873;SDS011;51367;45.204;38.576;2022-12-29T01:26:51;3.22;;;1.65;;
64873;SDS011;51367;45.204;38.576;2022-12-29T01:29:17;2.20;;;1.88;;
64873;SDS011;51367;45.204;38.576;2022-12-29T01:31:44;3.33;;;1.88;;
64873;SDS011;51367;45.204;38.576;2022-12-29T01:34:11;1.60;;;1.50;;
64873;SDS011;51367;45.204;38.576;2022-12-29T01:36:38;9.40;;;3.80;;
64873;SDS011;51367;45.204;38.576;2022-12-29T01:39:04;3.80;;;3.50;;
64873;SDS011;51367;45.204;38.576;2022-12-29T01:41:30;3.88;;;1.55;;
64873;SDS011;51367;45.204;38.576;2022-12-29T01:43:57;3.50;;;2.15;;
64873;SDS011;51367;45.204;38.576;2022-12-29T01:49:15;4.50;;;2.85;;
64873;SDS011;51367;45.204;38.576;2022-12-29T01:54:14;1.83;;;1.67;;
64873;SDS011;51367;45.204;38.576;2022-12-29T01:56:45;13.95;;;2.72;;
64873;SDS011;51367;45.204;38.576;2022-12-29T01:59:15;4.43;;;2.30;;
64873;SDS011;51367;45.204;38.576;2022-12-29T02:01:45;3.75;;;2.20;;
64873;SDS011;51367;45.204;38.576;2022-12-29T02:04:11;6.03;;;2.13;;
64873;SDS011;51367;45.204;38.576;2022-12-29T02:06:43;3.70;;;2.70;;
64873;SDS011;51367;45.204;38.576;2022-12-29T02:09:14;2.45;;;2.22;;
64873;SDS011;51367;45.204;38.576;2022-12-29T02:11:40;2.00;;;1.90;;
64873;SDS011;51367;45.204;38.576;2022-12-29T02:14:09;24.42;;;2.10;;
64873;SDS011;51367;45.204;38.576;2022-12-29T02:16:40;1.77;;;1.67;;
64873;SDS011;51367;45.204;38.576;2022-12-29T02:24:51;4.25;;;2.88;;
64873;SDS011;51367;45.204;38.576;2022-12-29T02:32:37;5.82;;;2.85;;
64873;SDS011;51367;45.204;38.576;2022-12-29T02:36:10;2.03;;;1.88;;
64873;SDS011;51367;45.204;38.576;2022-12-29T02:41:01;4.30;;;2.05;;
64873;SDS011;51367;45.204;38.576;2022-12-29T02:46:21;1.85;;;1.75;;
64873;SDS011;51367;45.204;38.576;2022-12-29T02:54:48;2.00;;;1.90;;
64873;SDS011;51367;45.204;38.576;2022-12-29T02:59:47;10.73;;;2.28;;
64873;SDS011;51367;45.204;38.576;2022-12-29T03:02:25;1.92;;;1.83;;
64873;SDS011;51367;45.204;38.576;2022-12-29T03:05:33;3.10;;;2.88;;
64873;SDS011;51367;45.204;38.576;2022-12-29T03:11:25;1.42;;;1.33;;
64873;SDS011;51367;45.204;38.576;2022-12-29T03:14:28;1.92;;;1.77;;
64873;SDS011;51367;45.204;38.576;2022-12-29T03:17:32;3.25;;;2.15;;
64873;SDS011;51367;45.204;38.576;2022-12-29T03:20:04;3.10;;;2.83;;
64873;SDS011;51367;45.204;38.576;2022-12-29T03:22:36;9.32;;;1.75;;
64873;SDS011;51367;45.204;38.576;2022-12-29T03:25:16;13.43;;;2.00;;
64873;SDS011;51367;45.204;38.576;2022-12-29T03:27:49;12.13;;;2.90;;
64873;SDS011;51367;45.204;38.576;2022-12-29T03:30:21;2.40;;;2.22;;
64873;SDS011;51367;45.204;38.576;2022-12-29T03:32:49;2.80;;;2.55;;
64873;SDS011;51367;45.204;38.576;2022-12-29T03:35:19;1.83;;;1.73;;
64873;SDS011;51367;45.204;38.576;2022-12-29T03:40:46;12.32;;;1.60;;
64873;SDS011;51367;45.204;38.576;2022-12-29T03:43:16;2.20;;;2.03;;
64873;SDS011;51367;45.204;38.576;2022-12-29T03:45:44;4.47;;;2.97;;
64873;SDS011;51367;45.204;38.576;2022-12-29T03:48:10;2.28;;;2.15;;
64873;SDS011;51367;45.204;38.576;2022-12-29T03:50:39;2.58;;;2.38;;
64873;SDS011;51367;45.204;38.576;2022-12-29T03:53:06;2.30;;;2.10;;
64873;SDS011;51367;45.204;38.576;2022-12-29T03:55:32;4.22;;;2.63;;
64873;SDS011;51367;45.204;38.576;2022-12-29T03:57:58;4.38;;;3.92;;
64873;SDS011;51367;45.204;38.576;2022-12-29T04:00:43;8.57;;;3.70;;
64873;SDS011;51367;45.204;38.576;2022-12-29T04:03:09;5.57;;;4.47;;
64873;SDS011;51367;45.204;38.576;2022-12-29T04:05:35;5.47;;;4.18;;
64873;SDS011;51367;45.204;38.576;2022-12-29T04:08:01;2.80;;;2.63;;
64873;SDS011;51367;45.204;38.576;2022-12-29T04:10:27;1.40;;;1.40;;
64873;SDS011;51367;45.204;38.576;2022-12-29T04:12:57;4.25;;;2.45;;
64873;SDS011;51367;45.204;38.576;2022-12-29T04:15:24;1.92;;;1.80;;
64873;SDS011;51367;45.204;38.576;2022-12-29T04:17:52;3.72;;;1.98;;
64873;SDS011;51367;45.204;38.576;2022-12-29T04:20:18;1.98;;;1.58;;
64873;SDS011;51367;45.204;38.576;2022-12-29T04:23:05;2.13;;;2.00;;
64873;SDS011;51367;45.204;38.576;2022-12-29T04:25:33;2.00;;;1.90;;
64873;SDS011;51367;45.204;38.576;2022-12-29T04:27:59;8.55;;;1.88;;
64873;SDS011;51367;45.204;38.576;2022-12-29T04:30:44;2.20;;;2.10;;
64873;SDS011;51367;45.204;38.576;2022-12-29T04:33:20;4.10;;;2.80;;
64873;SDS011;51367;45.204;38.576;2022-12-29T04:35:46;3.60;;;2.90;;
64873;SDS011;51367;45.204;38.576;2022-12-29T04:38:13;4.57;;;4.05;;
64873;SDS011;51367;45.204;38.576;2022-12-29T04:40:41;14.38;;;9.85;;
64873;SDS011;51367;45.204;38.576;2022-12-29T04:43:09;21.50;;;7.85;;
64873;SDS011;51367;45.204;38.576;2022-12-29T04:45:54;18.98;;;7.25;;
64873;SDS011;51367;45.204;38.576;2022-12-29T04:48:26;22.77;;;4.72;;
64873;SDS011;51367;45.204;38.576;2022-12-29T04:51:09;8.40;;;4.88;;
64873;SDS011;51367;45.204;38.576;2022-12-29T04:53:38;2.42;;;2.22;;
64873;SDS011;51367;45.204;38.576;2022-12-29T04:56:04;2.90;;;2.25;;
64873;SDS011;51367;45.204;38.576;2022-12-29T04:58:31;2.78;;;2.58;;
64873;SDS011;51367;45.204;38.576;2022-12-29T05:00:58;9.10;;;3.88;;
64873;SDS011;51367;45.204;38.576;2022-12-29T05:03:27;2.55;;;2.40;;
64873;SDS011;51367;45.204;38.576;2022-12-29T05:05:54;4.53;;;2.13;;
64873;SDS011;51367;45.204;38.576;2022-12-29T05:08:21;5.00;;;2.45;;
64873;SDS011;51367;45.204;38.576;2022-12-29T05:10:49;3.15;;;2.95;;
64873;SDS011;51367;45.204;38.576;2022-12-29T05:13:17;3.15;;;2.85;;
64873;SDS011;51367;45.204;38.576;2022-12-29T05:15:50;2.08;;;1.88;;
64873;SDS011;51367;45.204;38.576;2022-12-29T05:18:17;5.57;;;3.35;;
64873;SDS011;51367;45.204;38.576;2022-12-29T05:20:43;4.78;;;4.28;;
64873;SDS011;51367;45.204;38.576;2022-12-29T05:23:10;5.20;;;3.08;;
64873;SDS011;51367;45.204;38.576;2022-12-29T05:25:37;4.32;;;3.92;;
64873;SDS011;51367;45.204;38.576;2022-12-29T05:28:16;6.07;;;4.65;;
64873;SDS011;51367;45.204;38.576;2022-12-29T05:30:53;5.78;;;4.97;;
64873;SDS011;51367;45.204;38.576;2022-12-29T05:33:19;4.15;;;3.72;;
64873;SDS011;51367;45.204;38.576;2022-12-29T05:35:47;4.40;;;3.60;;
64873;SDS011;51367;45.204;38.576;2022-12-29T05:38:13;3.90;;;3.58;;
64873;SDS011;51367;45.204;38.576;2022-12-29T05:40:39;4.80;;;3.72;;
64873;SDS011;51367;45.204;38.576;2022-12-29T05:43:15;2.67;;;2.42;;
64873;SDS011;51367;45.204;38.576;2022-12-29T05:46:14;1.80;;;1.55;;
64873;SDS011;51367;45.204;38.576;2022-12-29T05:49:07;1.58;;;1.48;;
64873;SDS011;51367;45.204;38.576;2022-12-29T05:51:46;1.60;;;1.50;;
64873;SDS011;51367;45.204;38.576;2022-12-29T05:54:12;2.78;;;2.60;;
64873;SDS011;51367;45.204;38.576;2022-12-29T05:56:39;3.53;;;3.25;;
64873;SDS011;51367;45.204;38.576;2022-12-29T05:59:05;2.78;;;2.58;;
64873;SDS011;51367;45.204;38.576;2022-12-29T06:01:31;3.35;;;3.08;;
64873;SDS011;51367;45.204;38.576;2022-12-29T06:03:58;7.88;;;3.28;;
64873;SDS011;51367;45.204;38.576;2022-12-29T06:06:24;3.70;;;2.60;;
64873;SDS011;51367;45.204;38.576;2022-12-29T06:08:51;5.85;;;4.40;;
64873;SDS011;51367;45.204;38.576;2022-12-29T06:11:18;3.03;;;2.83;;
64873;SDS011;51367;45.204;38.576;2022-12-29T06:13:50;5.90;;;5.30;;
64873;SDS011;51367;45.204;38.576;2022-12-29T06:16:16;4.68;;;3.28;;
64873;SDS011;51367;45.204;38.576;2022-12-29T06:18:43;7.20;;;5.18;;
64873;SDS011;51367;45.204;38.576;2022-12-29T06:21:09;4.35;;;4.05;;
64873;SDS011;51367;45.204;38.576;2022-12-29T06:23:35;4.38;;;3.90;;
64873;SDS011;51367;45.204;38.576;2022-12-29T06:26:03;4.47;;;3.00;;
64873;SDS011;51367;45.204;38.576;2022-12-29T06:28:29;4.32;;;3.92;;
64873;SDS011;51367;45.204;38.576;2022-12-29T06:30:55;6.07;;;3.50;;
64873;SDS011;51367;45.204;38.576;2022-12-29T06:33:21;9.57;;;3.90;;
64873;SDS011;51367;45.204;38.576;2022-12-29T06:35:47;4.30;;;3.90;;
64873;SDS011;51367;45.204;38.576;2022-12-29T06:38:13;5.93;;;4.50;;
64873;SDS011;51367;45.204;38.576;2022-12-29T06:40:39;3.22;;;2.92;;
64873;SDS011;51367;45.204;38.576;2022-12-29T06:43:19;3.63;;;2.75;;
64873;SDS011;51367;45.204;38.576;2022-12-29T06:46:11;6.47;;;3.05;;
64873;SDS011;51367;45.204;38.576;2022-12-29T06:48:36;4.72;;;2.70;;
64873;SDS011;51367;45.204;38.576;2022-12-29T06:51:02;3.13;;;2.88;;
64873;SDS011;51367;45.204;38.576;2022-12-29T06:53:29;7.47;;;2.88;;
64873;SDS011;51367;45.204;38.576;2022-12-29T06:55:54;3.55;;;2.90;;
64873;SDS011;51367;45.204;38.576;2022-12-29T06:58:21;7.82;;;3.33;;
64873;SDS011;51367;45.204;38.576;2022-12-29T07:00:47;3.83;;;3.03;;
64873;SDS011;51367;45.204;38.576;2022-12-29T07:03:13;8.88;;;3.45;;
64873;SDS011;51367;45.204;38.576;2022-12-29T07:05:39;6.93;;;3.00;;
64873;SDS011;51367;45.204;38.576;2022-12-29T07:08:05;2.33;;;1.85;;
64873;SDS011;51367;45.204;38.576;2022-12-29T07:10:31;2.65;;;2.42;;
64873;SDS011;51367;45.204;38.576;2022-12-29T07:12:57;3.45;;;2.83;;
64873;SDS011;51367;45.204;38.576;2022-12-29T07:15:23;2.42;;;2.22;;
64873;SDS011;51367;45.204;38.576;2022-12-29T07:17:49;6.28;;;4.07;;
64873;SDS011;51367;45.204;38.576;2022-12-29T07:20:15;5.53;;;3.97;;
64873;SDS011;51367;45.204;38.576;2022-12-29T07:22:41;5.28;;;4.43;;
64873;SDS011;51367;45.204;38.576;2022-12-29T07:25:07;11.75;;;7.25;;
64873;SDS011;51367;45.204;38.576;2022-12-29T07:27:33;17.05;;;3.75;;
64873;SDS011;51367;45.204;38.576;2022-12-29T07:30:00;4.55;;;3.33;;
64873;SDS011;51367;45.204;38.576;2022-12-29T07:32:25;3.38;;;2.38;;
64873;SDS011;51367;45.204;38.576;2022-12-29T07:34:51;5.85;;;3.20;;
64873;SDS011;51367;45.204;38.576;2022-12-29T07:37:17;2.50;;;2.03;;
64873;SDS011;51367;45.204;38.576;2022-12-29T07:39:44;3.45;;;2.30;;
64873;SDS011;51367;45.204;38.576;2022-12-29T07:42:10;12.60;;;3.78;;
64873;SDS011;51367;45.204;38.576;2022-12-29T07:44:40;4.95;;;2.75;;
64873;SDS011;51367;45.204;38.576;2022-12-29T07:47:20;4.55;;;2.25;;
64873;SDS011;51367;45.204;38.576;2022-12-29T07:49:45;14.35;;;2.55;;
64873;SDS011;51367;45.204;38.576;2022-12-29T07:52:11;4.20;;;2.33;;
64873;SDS011;51367;45.204;38.576;2022-12-29T07:54:37;2.90;;;2.40;;
64873;SDS011;51367;45.204;38.576;2022-12-29T07:57:04;8.10;;;2.40;;
64873;SDS011;51367;45.204;38.576;2022-12-29T07:59:31;6.10;;;2.75;;
64873;SDS011;51367;45.204;38.576;2022-12-29T08:01:57;5.80;;;2.25;;
64873;SDS011;51367;45.204;38.576;2022-12-29T08:04:23;2.92;;;2.53;;
64873;SDS011;51367;45.204;38.576;2022-12-29T08:06:49;5.45;;;2.17;;
64873;SDS011;51367;45.204;38.576;2022-12-29T08:09:15;3.85;;;1.85;;
64873;SDS011;51367;45.204;38.576;2022-12-29T08:11:41;8.85;;;2.15;;
64873;SDS011;51367;45.204;38.576;2022-12-29T08:14:08;2.50;;;2.25;;
64873;SDS011;51367;45.204;38.576;2022-12-29T08:16:34;3.05;;;2.78;;
64873;SDS011;51367;45.204;38.576;2022-12-29T08:19:00;12.00;;;1.98;;
64873;SDS011;51367;45.204;38.576;2022-12-29T08:21:27;4.55;;;3.00;;
64873;SDS011;51367;45.204;38.576;2022-12-29T08:23:53;4.43;;;2.28;;
64873;SDS011;51367;45.204;38.576;2022-12-29T08:26:20;2.30;;;2.05;;
64873;SDS011;51367;45.204;38.576;2022-12-29T08:28:46;3.33;;;2.30;;
64873;SDS011;51367;45.204;38.576;2022-12-29T08:31:12;2.10;;;1.83;;
64873;SDS011;51367;45.204;38.576;2022-12-29T08:33:37;5.00;;;2.65;;
64873;SDS011;51367;45.204;38.576;2022-12-29T08:36:04;3.90;;;2.15;;
64873;SDS011;51367;45.204;38.576;2022-12-29T08:38:31;3.80;;;2.90;;
64873;SDS011;51367;45.204;38.576;2022-12-29T08:40:58;2.20;;;2.00;;
64873;SDS011;51367;45.204;38.576;2022-12-29T08:43:26;2.90;;;2.42;;
64873;SDS011;51367;45.204;38.576;2022-12-29T08:45:53;3.15;;;2.22;;
64873;SDS011;51367;45.204;38.576;2022-12-29T08:48:19;3.88;;;2.28;;
64873;SDS011;51367;45.204;38.576;2022-12-29T08:50:47;4.00;;;2.88;;
64873;SDS011;51367;45.204;38.576;2022-12-29T08:53:13;2.22;;;1.95;;
64873;SDS011;51367;45.204;38.576;2022-12-29T08:55:39;4.45;;;2.58;;
64873;SDS011;51367;45.204;38.576;2022-12-29T08:58:05;4.63;;;2.78;;
64873;SDS011;51367;45.204;38.576;2022-12-29T09:00:34;3.38;;;1.75;;
64873;SDS011;51367;45.204;38.576;2022-12-29T09:03:01;6.82;;;2.55;;
64873;SDS011;51367;45.204;38.576;2022-12-29T09:05:26;3.15;;;2.40;;
64873;SDS011;51367;45.204;38.576;2022-12-29T09:07:52;6.05;;;2.45;;
64873;SDS011;51367;45.204;38.576;2022-12-29T09:10:18;2.60;;;1.85;;
64873;SDS011;51367;45.204;38.576;2022-12-29T09:12:44;4.80;;;2.58;;
64873;SDS011;51367;45.204;38.576;2022-12-29T09:15:10;3.03;;;1.98;;
64873;SDS011;51367;45.204;38.576;2022-12-29T09:17:37;8.23;;;2.33;;
64873;SDS011;51367;45.204;38.576;2022-12-29T09:20:12;3.25;;;2.08;;
64873;SDS011;51367;45.204;38.576;2022-12-29T09:22:40;2.65;;;2.03;;
64873;SDS011;51367;45.204;38.576;2022-12-29T09:25:06;2.75;;;1.95;;
64873;SDS011;51367;45.204;38.576;2022-12-29T09:27:34;3.08;;;1.88;;
64873;SDS011;51367;45.204;38.576;2022-12-29T09:30:01;2.25;;;1.83;;
64873;SDS011;51367;45.204;38.576;2022-12-29T09:32:32;3.30;;;1.48;;
64873;SDS011;51367;45.204;38.576;2022-12-29T09:34:59;2.92;;;2.08;;
64873;SDS011;51367;45.204;38.576;2022-12-29T09:37:24;2.67;;;1.50;;
64873;SDS011;51367;45.204;38.576;2022-12-29T09:39:50;2.70;;;1.30;;
64873;SDS011;51367;45.204;38.576;2022-12-29T09:42:27;1.38;;;1.27;;
64873;SDS011;51367;45.204;38.576;2022-12-29T09:45:18;6.00;;;1.65;;
64873;SDS011;51367;45.204;38.576;2022-12-29T09:47:53;1.42;;;1.33;;
64873;SDS011;51367;45.204;38.576;2022-12-29T09:50:29;2.03;;;1.65;;
64873;SDS011;51367;45.204;38.576;2022-12-29T09:55:39;7.18;;;2.88;;
64873;SDS011;51367;45.204;38.576;2022-12-29T09:58:14;1.98;;;1.42;;
64873;SDS011;51367;45.204;38.576;2022-12-29T10:03:15;1.70;;;1.60;;
64873;SDS011;51367;45.204;38.576;2022-12-29T10:05:55;2.42;;;1.38;;
64873;SDS011;51367;45.204;38.576;2022-12-29T10:08:32;4.10;;;2.22;;
64873;SDS011;51367;45.204;38.576;2022-12-29T10:11:05;1.50;;;1.40;;
64873;SDS011;51367;45.204;38.576;2022-12-29T10:22:51;4.22;;;1.63;;
64873;SDS011;51367;45.204;38.576;2022-12-29T10:25:22;2.42;;;2.22;;
64873;SDS011;51367;45.204;38.576;2022-12-29T10:27:51;2.75;;;2.10;;
64873;SDS011;51367;45.204;38.576;2022-12-29T10:30:21;3.08;;;2.78;;
64873;SDS011;51367;45.204;38.576;2022-12-29T10:32:49;2.25;;;1.73;;
64873;SDS011;51367;45.204;38.576;2022-12-29T10:35:24;2.88;;;2.17;;
64873;SDS011;51367;45.204;38.576;2022-12-29T10:38:02;10.30;;;3.33;;
64873;SDS011;51367;45.204;38.576;2022-12-29T10:40:43;7.20;;;2.47;;
64873;SDS011;51367;45.204;38.576;2022-12-29T10:43:27;6.57;;;3.65;;
64873;SDS011;51367;45.204;38.576;2022-12-29T10:45:59;11.38;;;5.22;;
64873;SDS011;51367;45.204;38.576;2022-12-29T10:48:32;2.35;;;2.13;;
64873;SDS011;51367;45.204;38.576;2022-12-29T10:51:00;5.95;;;2.72;;
64873;SDS011;51367;45.204;38.576;2022-12-29T10:53:48;2.70;;;2.45;;
64873;SDS011;51367;45.204;38.576;2022-12-29T10:56:42;1.85;;;1.60;;
64873;SDS011;51367;45.204;38.576;2022-12-29T11:04:31;3.10;;;1.70;;
64873;SDS011;51367;45.204;38.576;2022-12-29T11:07:20;2.83;;;1.55;;
64873;SDS011;51367;45.204;38.576;2022-12-29T11:09:48;1.60;;;1.50;;
64873;SDS011;51367;45.204;38.576;2022-12-29T11:12:18;1.70;;;1.60;;
64873;SDS011;51367;45.204;38.576;2022-12-29T11:14:46;1.40;;;1.30;;
64873;SDS011;51367;45.204;38.576;2022-12-29T11:17:16;1.50;;;1.35;;
64873;SDS011;51367;45.204;38.576;2022-12-29T11:19:43;1.92;;;1.60;;
64873;SDS011;51367;45.204;38.576;2022-12-29T11:22:14;2.75;;;1.75;;
64873;SDS011;51367;45.204;38.576;2022-12-29T11:24:48;1.73;;;1.63;;
64873;SDS011;51367;45.204;38.576;2022-12-29T11:29:48;1.55;;;1.15;;
64873;SDS011;51367;45.204;38.576;2022-12-29T11:32:19;2.72;;;1.63;;
64873;SDS011;51367;45.204;38.576;2022-12-29T11:34:50;1.15;;;1.05;;
64873;SDS011;51367;45.204;38.576;2022-12-29T11:37:16;1.70;;;1.60;;
64873;SDS011;51367;45.204;38.576;2022-12-29T11:39:58;1.90;;;1.50;;
64873;SDS011;51367;45.204;38.576;2022-12-29T11:42:40;1.92;;;1.73;;
64873;SDS011;51367;45.204;38.576;2022-12-29T11:45:16;1.55;;;1.40;;
64873;SDS011;51367;45.204;38.576;2022-12-29T11:47:45;1.13;;;1.10;;
64873;SDS011;51367;45.204;38.576;2022-12-29T11:50:18;1.48;;;1.38;;
64873;SDS011;51367;45.204;38.576;2022-12-29T11:52:48;2.55;;;1.42;;
64873;SDS011;51367;45.204;38.576;2022-12-29T11:55:23;5.30;;;1.65;;
64873;SDS011;51367;45.204;38.576;2022-12-29T11:57:52;2.35;;;1.67;;
64873;SDS011;51367;45.204;38.576;2022-12-29T12:00:24;2.10;;;1.75;;
64873;SDS011;51367;45.204;38.576;2022-12-29T12:03:05;1.63;;;1.25;;
64873;SDS011;51367;45.204;38.576;2022-12-29T12:11:10;1.40;;;1.30;;
64873;SDS011;51367;45.204;38.576;2022-12-29T12:16:33;1.90;;;1.70;;
64873;SDS011;51367;45.204;38.576;2022-12-29T12:19:32;2.08;;;1.83;;
64873;SDS011;51367;45.204;38.576;2022-12-29T12:22:29;1.58;;;1.48;;
64873;SDS011;51367;45.204;38.576;2022-12-29T12:25:15;2.50;;;1.52;;
64873;SDS011;51367;45.204;38.576;2022-12-29T12:28:33;1.80;;;1.33;;
64873;SDS011;51367;45.204;38.576;2022-12-29T12:30:45;2.45;;;1.30;;
64873;SDS011;51367;45.204;38.576;2022-12-29T12:41:41;2.58;;;1.55;;
64873;SDS011;51367;45.204;38.576;2022-12-29T12:44:42;4.13;;;3.17;;
64873;SDS011;51367;45.204;38.576;2022-12-29T12:47:50;3.47;;;1.98;;
64873;SDS011;51367;45.204;38.576;2022-12-29T12:50:26;3.17;;;1.17;;
64873;SDS011;51367;45.204;38.576;2022-12-29T12:55:50;2.17;;;1.77;;
64873;SDS011;51367;45.204;38.576;2022-12-29T13:09:00;2.55;;;1.40;;
64873;SDS011;51367;45.204;38.576;2022-12-29T13:11:39;3.05;;;1.73;;
64873;SDS011;51367;45.204;38.576;2022-12-29T13:14:37;13.60;;;2.90;;
64873;SDS011;51367;45.204;38.576;2022-12-29T13:20:18;25.05;;;7.72;;
64873;SDS011;51367;45.204;38.576;2022-12-29T13:26:08;24.90;;;4.77;;
64873;SDS011;51367;45.204;38.576;2022-12-29T13:28:45;12.73;;;3.15;;
64873;SDS011;51367;45.204;38.576;2022-12-29T13:36:42;9.43;;;4.40;;
64873;SDS011;51367;45.204;38.576;2022-12-29T13:41:51;22.33;;;5.63;;
64873;SDS011;51367;45.204;38.576;2022-12-29T13:47:16;5.20;;;4.00;;
64873;SDS011;51367;45.204;38.576;2022-12-29T13:50:03;5.30;;;4.45;;
64873;SDS011;51367;45.204;38.576;2022-12-29T13:58:13;18.73;;;4.72;;
64873;SDS011;51367;45.204;38.576;2022-12-29T14:00:58;4.75;;;3.70;;
64873;SDS011;51367;45.204;38.576;2022-12-29T14:08:54;8.25;;;3.08;;
64873;SDS011;51367;45.204;38.576;2022-12-29T14:11:33;35.85;;;12.10;;
64873;SDS011;51367;45.204;38.576;2022-12-29T14:14:13;11.75;;;10.00;;
64873;SDS011;51367;45.204;38.576;2022-12-29T14:16:51;4.82;;;2.97;;
64873;SDS011;51367;45.204;38.576;2022-12-29T14:19:22;11.30;;;6.50;;
64873;SDS011;51367;45.204;38.576;2022-12-29T14:21:53;65.78;;;18.85;;
64873;SDS011;51367;45.204;38.576;2022-12-29T14:27:51;203.88;;;57.00;;
64873;SDS011;51367;45.204;38.576;2022-12-29T14:29:49;170.32;;;56.67;;
64873;SDS011;51367;45.204;38.576;2022-12-29T14:40:28;146.38;;;47.92;;
64873;SDS011;51367;45.204;38.576;2022-12-29T14:42:52;64.97;;;22.85;;
64873;SDS011;51367;45.204;38.576;2022-12-29T14:47:47;164.80;;;44.13;;
64873;SDS011;51367;45.204;38.576;2022-12-29T14:53:10;8.32;;;5.15;;
64873;SDS011;51367;45.204;38.576;2022-12-29T14:56:13;14.50;;;9.00;;
64873;SDS011;51367;45.204;38.576;2022-12-29T14:58:59;10.43;;;5.28;;
64873;SDS011;51367;45.204;38.576;2022-12-29T15:02:03;113.63;;;40.97;;
64873;SDS011;51367;45.204;38.576;2022-12-29T15:04:30;92.70;;;33.53;;
64873;SDS011;51367;45.204;38.576;2022-12-29T15:06:57;48.60;;;23.98;;
64873;SDS011;51367;45.204;38.576;2022-12-29T15:15:38;46.03;;;17.92;;
64873;SDS011;51367;45.204;38.576;2022-12-29T15:20:51;19.75;;;13.13;;
64873;SDS011;51367;45.204;38.576;2022-12-29T15:23:20;78.90;;;36.17;;
64873;SDS011;51367;45.204;38.576;2022-12-29T15:25:47;17.30;;;10.25;;
64873;SDS011;51367;45.204;38.576;2022-12-29T15:28:38;25.25;;;16.92;;
64873;SDS011;51367;45.204;38.576;2022-12-29T15:33:44;6.35;;;4.50;;
64873;SDS011;51367;45.204;38.576;2022-12-29T15:38:46;8.05;;;5.45;;
64873;SDS011;51367;45.204;38.576;2022-12-29T15:44:32;8.30;;;3.33;;
64873;SDS011;51367;45.204;38.576;2022-12-29T15:47:06;15.25;;;8.93;;
64873;SDS011;51367;45.204;38.576;2022-12-29T15:49:41;3.85;;;3.22;;
64873;SDS011;51367;45.204;38.576;2022-12-29T15:52:08;8.52;;;3.30;;
64873;SDS011;51367;45.204;38.576;2022-12-29T15:54:34;13.32;;;4.25;;
64873;SDS011;51367;45.204;38.576;2022-12-29T15:57:02;3.40;;;2.67;;
64873;SDS011;51367;45.204;38.576;2022-12-29T15:59:30;4.38;;;2.72;;
64873;SDS011;51367;45.204;38.576;2022-12-29T16:01:58;6.60;;;4.32;;
64873;SDS011;51367;45.204;38.576;2022-12-29T16:04:27;3.03;;;2.33;;
64873;SDS011;51367;45.204;38.576;2022-12-29T16:07:02;4.75;;;3.15;;
64873;SDS011;51367;45.204;38.576;2022-12-29T16:12:23;13.25;;;3.17;;
64873;SDS011;51367;45.204;38.576;2022-12-29T16:14:55;4.22;;;2.90;;
64873;SDS011;51367;45.204;38.576;2022-12-29T16:17:24;6.53;;;3.73;;
64873;SDS011;51367;45.204;38.576;2022-12-29T16:19:54;3.75;;;2.78;;
64873;SDS011;51367;45.204;38.576;2022-12-29T16:22:27;8.43;;;3.25;;
64873;SDS011;51367;45.204;38.576;2022-12-29T16:24:55;30.70;;;18.33;;
64873;SDS011;51367;45.204;38.576;2022-12-29T16:27:36;8.00;;;4.47;;
64873;SDS011;51367;45.204;38.576;2022-12-29T16:32:47;3.83;;;3.20;;
64873;SDS011;51367;45.204;38.576;2022-12-29T16:35:19;2.60;;;2.40;;
64873;SDS011;51367;45.204;38.576;2022-12-29T16:47:47;13.05;;;2.53;;
64873;SDS011;51367;45.204;38.576;2022-12-29T16:50:18;6.55;;;3.00;;
64873;SDS011;51367;45.204;38.576;2022-12-29T16:52:50;8.07;;;2.83;;
64873;SDS011;51367;45.204;38.576;2022-12-29T16:55:17;9.90;;;3.38;;
64873;SDS011;51367;45.204;38.576;2022-12-29T16:57:44;3.40;;;3.00;;
64873;SDS011;51367;45.204;38.576;2022-12-29T17:00:21;6.70;;;3.55;;
64873;SDS011;51367;45.204;38.576;2022-12-29T17:02:49;4.90;;;3.47;;
64873;SDS011;51367;45.204;38.576;2022-12-29T17:05:19;3.92;;;3.53;;
64873;SDS011;51367;45.204;38.576;2022-12-29T17:07:45;10.80;;;3.05;;
64873;SDS011;51367;45.204;38.576;2022-12-29T17:10:12;3.65;;;3.10;;
64873;SDS011;51367;45.204;38.576;2022-12-29T17:12:44;3.78;;;3.03;;
64873;SDS011;51367;45.204;38.576;2022-12-29T17:15:24;4.95;;;3.50;;
64873;SDS011;51367;45.204;38.576;2022-12-29T17:17:53;6.90;;;3.80;;
64873;SDS011;51367;45.204;38.576;2022-12-29T17:20:21;43.13;;;3.88;;
64873;SDS011;51367;45.204;38.576;2022-12-29T17:22:51;13.43;;;2.83;;
64873;SDS011;51367;45.204;38.576;2022-12-29T17:25:22;13.73;;;3.53;;
64873;SDS011;51367;45.204;38.576;2022-12-29T17:27:55;2.72;;;2.15;;
64873;SDS011;51367;45.204;38.576;2022-12-29T17:30:28;14.27;;;3.05;;
64873;SDS011;51367;45.204;38.576;2022-12-29T17:32:58;6.40;;;3.50;;
64873;SDS011;51367;45.204;38.576;2022-12-29T17:35:28;3.40;;;2.67;;
64873;SDS011;51367;45.204;38.576;2022-12-29T17:37:54;3.92;;;2.90;;
64873;SDS011;51367;45.204;38.576;2022-12-29T17:40:29;4.40;;;2.55;;
64873;SDS011;51367;45.204;38.576;2022-12-29T17:42:58;2.58;;;2.38;;